createdAt,value
2022-09-26T00:01:33.895Z,0.40
2022-09-26T00:04:05.114Z,0.50
2022-09-26T00:06:32.867Z,0.75
2022-09-26T00:09:00.541Z,0.40
2022-09-26T00:11:31.232Z,0.25
2022-09-26T00:14:01.477Z,0.80
2022-09-26T00:16:29.593Z,1.15
2022-09-26T00:18:59.064Z,0.82
2022-09-26T00:21:29.489Z,0.50
2022-09-26T00:23:58.325Z,0.80
2022-09-26T00:26:28.594Z,0.60
2022-09-26T00:28:57.768Z,0.40
2022-09-26T00:31:28.800Z,0.40
2022-09-26T00:33:57.344Z,0.65
2022-09-26T00:36:36.893Z,1.08
2022-09-26T00:39:08.016Z,0.35
2022-09-26T00:41:36.943Z,0.65
2022-09-26T00:44:37.002Z,0.50
2022-09-26T00:47:07.521Z,0.50
2022-09-26T00:49:40.330Z,0.55
2022-09-26T00:52:21.300Z,0.32
2022-09-26T00:54:53.656Z,0.40
2022-09-26T00:57:33.585Z,0.20
2022-09-26T01:00:05.838Z,0.63
2022-09-26T01:02:33.589Z,0.30
2022-09-26T01:05:02.029Z,0.30
2022-09-26T01:07:30.344Z,0.50
2022-09-26T01:09:58.822Z,0.38
2022-09-26T01:12:26.602Z,0.50
2022-09-26T01:14:55.170Z,0.68
2022-09-26T01:17:24.918Z,0.73
2022-09-26T01:20:11.448Z,0.73
2022-09-26T01:22:57.976Z,0.40
2022-09-26T01:25:43.990Z,0.25
2022-09-26T01:28:37.720Z,0.35
2022-09-26T01:31:31.125Z,0.50
2022-09-26T01:34:10.715Z,0.30
2022-09-26T01:37:14.718Z,0.38
2022-09-26T01:40:03.033Z,0.40
2022-09-26T01:42:43.596Z,0.47
2022-09-26T01:45:17.863Z,0.57
2022-09-26T01:48:03.798Z,0.55
2022-09-26T01:50:51.507Z,0.30
2022-09-26T01:53:25.708Z,0.22
2022-09-26T01:56:04.863Z,0.45
2022-09-26T01:59:03.633Z,0.40
2022-09-26T02:01:37.908Z,0.30
2022-09-26T02:04:25.592Z,0.30
2022-09-26T02:07:02.451Z,0.35
2022-09-26T02:09:46.452Z,0.40
2022-09-26T02:12:21.644Z,0.30
2022-09-26T02:17:23.336Z,0.30
2022-09-26T02:19:57.554Z,0.57
2022-09-26T02:22:29.069Z,0.45
2022-09-26T02:24:57.136Z,0.60
2022-09-26T02:27:28.241Z,0.40
2022-09-26T02:29:56.463Z,0.32
2022-09-26T02:32:34.391Z,0.77
2022-09-26T02:35:22.833Z,0.30
2022-09-26T02:37:55.532Z,0.50
2022-09-26T02:40:33.552Z,0.50
2022-09-26T02:43:22.039Z,1.00
2022-09-26T02:46:14.872Z,0.60
2022-09-26T02:48:42.513Z,0.43
2022-09-26T02:51:10.357Z,0.50
2022-09-26T02:54:12.003Z,0.30
2022-09-26T02:57:03.743Z,0.30
2022-09-26T02:59:57.611Z,0.30
2022-09-26T03:02:35.904Z,0.40
2022-09-26T03:05:21.780Z,0.20
2022-09-26T03:08:06.706Z,0.15
2022-09-26T03:10:35.468Z,0.40
2022-09-26T03:13:11.645Z,0.40
2022-09-26T03:15:42.217Z,0.88
2022-09-26T03:18:17.259Z,0.30
2022-09-26T03:20:45.380Z,0.40
2022-09-26T03:23:13.653Z,0.95
2022-09-26T03:25:42.735Z,0.60
2022-09-26T03:28:13.170Z,0.38
2022-09-26T03:30:41.555Z,0.47
2022-09-26T03:33:29.029Z,0.70
2022-09-26T03:36:00.218Z,1.08
2022-09-26T03:38:28.235Z,0.73
2022-09-26T03:41:06.147Z,0.47
2022-09-26T03:43:45.991Z,0.40
2022-09-26T03:46:15.997Z,0.50
2022-09-26T03:48:44.085Z,0.60
2022-09-26T03:51:16.332Z,0.25
2022-09-26T03:53:47.262Z,0.65
2022-09-26T03:56:19.293Z,0.50
2022-09-26T03:58:49.227Z,0.93
2022-09-26T04:01:20.904Z,0.40
2022-09-26T04:03:51.106Z,0.60
2022-09-26T04:06:20.926Z,0.60
2022-09-26T04:08:51.963Z,0.22
2022-09-26T04:11:21.990Z,0.65
2022-09-26T04:13:52.304Z,1.10
2022-09-26T04:16:23.791Z,1.30
2022-09-26T04:18:58.034Z,1.80
2022-09-26T04:21:27.602Z,1.80
2022-09-26T04:23:56.246Z,0.75
2022-09-26T04:26:24.711Z,0.75
2022-09-26T04:28:56.086Z,0.95
2022-09-26T04:31:30.699Z,1.10
2022-09-26T04:34:06.806Z,0.82
2022-09-26T04:36:35.208Z,0.60
2022-09-26T04:39:03.863Z,1.15
2022-09-26T04:41:31.829Z,1.00
2022-09-26T04:44:01.885Z,1.70
2022-09-26T04:46:31.718Z,1.00
2022-09-26T04:49:02.729Z,0.88
2022-09-26T04:51:31.844Z,0.57
2022-09-26T04:54:00.198Z,0.85
2022-09-26T04:56:29.900Z,0.75
2022-09-26T04:58:58.836Z,1.50
2022-09-26T05:01:33.016Z,2.17
2022-09-26T05:04:07.316Z,1.95
2022-09-26T05:06:35.174Z,0.90
2022-09-26T05:09:04.682Z,0.80
2022-09-26T05:11:45.343Z,0.68
2022-09-26T05:14:14.386Z,1.10
2022-09-26T05:16:42.123Z,1.48
2022-09-26T05:19:13.801Z,0.90
2022-09-26T05:21:55.119Z,0.75
2022-09-26T05:24:41.159Z,1.05
2022-09-26T05:27:09.206Z,0.90
2022-09-26T05:29:36.992Z,1.60
2022-09-26T05:32:07.318Z,1.83
2022-09-26T05:34:38.343Z,1.50
2022-09-26T05:37:07.008Z,1.25
2022-09-26T05:39:53.302Z,1.10
2022-09-26T05:42:21.696Z,1.13
2022-09-26T05:44:49.341Z,0.80
2022-09-26T05:47:17.272Z,1.20
2022-09-26T05:49:45.459Z,1.00
2022-09-26T05:52:15.853Z,0.88
2022-09-26T05:54:43.426Z,1.17
2022-09-26T05:59:58.105Z,1.48
2022-09-26T06:02:25.836Z,1.23
2022-09-26T06:05:24.571Z,1.30
2022-09-26T06:08:04.108Z,1.05
2022-09-26T06:11:08.715Z,0.85
2022-09-26T06:13:37.290Z,1.13
2022-09-26T06:16:07.290Z,1.02
2022-09-26T06:18:39.080Z,0.85
2022-09-26T06:21:09.507Z,0.80
2022-09-26T06:23:37.632Z,1.33
2022-09-26T06:26:10.871Z,0.73
2022-09-26T06:28:40.208Z,1.10
2022-09-26T06:31:12.688Z,1.00
2022-09-26T06:34:18.905Z,1.15
2022-09-26T06:39:37.051Z,0.70
2022-09-26T06:42:07.519Z,0.63
2022-09-26T06:44:55.536Z,1.08
2022-09-26T06:47:28.536Z,1.23
2022-09-26T06:50:14.740Z,0.82
2022-09-26T06:52:46.003Z,1.80
2022-09-26T06:55:15.310Z,4.28
2022-09-26T06:57:44.696Z,3.65
2022-09-26T07:00:15.975Z,3.00
2022-09-26T07:03:05.785Z,4.00
2022-09-26T07:05:46.600Z,0.98
2022-09-26T07:08:15.085Z,0.88
2022-09-26T07:10:42.951Z,0.73
2022-09-26T07:13:17.406Z,0.90
2022-09-26T07:15:46.812Z,1.00
2022-09-26T07:18:34.883Z,0.52
2022-09-26T07:21:16.726Z,0.50
2022-09-26T07:23:49.522Z,0.70
2022-09-26T07:26:19.995Z,0.93
2022-09-26T07:28:53.699Z,0.73
2022-09-26T07:31:23.836Z,1.25
2022-09-26T07:34:18.385Z,2.95
2022-09-26T07:36:47.609Z,1.23
2022-09-26T07:39:16.192Z,0.93
2022-09-26T07:41:46.176Z,1.13
2022-09-26T07:47:22.583Z,0.45
2022-09-26T07:50:08.937Z,0.98
2022-09-26T07:52:44.627Z,0.80
2022-09-26T07:55:25.800Z,0.40
2022-09-26T07:58:11.701Z,0.90
2022-09-26T08:00:51.010Z,0.98
2022-09-26T08:03:40.031Z,0.63
2022-09-26T08:06:20.285Z,0.60
2022-09-26T08:08:48.307Z,0.60
2022-09-26T08:11:40.311Z,0.40
2022-09-26T08:14:34.362Z,0.60
2022-09-26T08:17:40.942Z,0.60
2022-09-26T08:20:09.234Z,0.38
2022-09-26T08:22:37.717Z,0.52
2022-09-26T08:25:07.323Z,0.50
2022-09-26T08:27:43.799Z,0.35
2022-09-26T08:30:13.637Z,0.40
2022-09-26T08:32:42.083Z,1.73
2022-09-26T08:35:14.070Z,1.90
2022-09-26T08:38:15.575Z,2.15
2022-09-26T08:41:02.852Z,0.55
2022-09-26T08:43:45.327Z,0.40
2022-09-26T08:46:45.999Z,0.20
2022-09-26T08:49:59.643Z,0.80
2022-09-26T08:52:50.700Z,0.77
2022-09-26T08:55:30.419Z,0.60
2022-09-26T08:58:05.336Z,0.63
2022-09-26T09:00:38.227Z,0.50
2022-09-26T09:03:24.614Z,0.30
2022-09-26T09:06:11.435Z,0.32
2022-09-26T09:08:47.951Z,0.93
2022-09-26T09:12:04.198Z,0.22
2022-09-26T09:15:20.596Z,0.40
2022-09-26T09:18:21.177Z,2.50
2022-09-26T09:21:41.484Z,1.00
2022-09-26T09:24:23.696Z,0.52
2022-09-26T09:30:19.041Z,2.45
2022-09-26T09:33:24.041Z,0.63
2022-09-26T09:36:31.478Z,0.17
2022-09-26T09:39:40.235Z,0.20
2022-09-26T09:45:23.176Z,0.35
2022-09-26T09:47:50.826Z,0.30
2022-09-26T09:51:04.057Z,0.30
2022-09-26T09:53:52.723Z,1.48
2022-09-26T09:56:26.335Z,0.20
2022-09-26T09:59:19.786Z,0.40
2022-09-26T10:02:30.049Z,0.20
2022-09-26T10:05:13.540Z,0.90
2022-09-26T10:07:41.780Z,0.60
2022-09-26T10:11:13.835Z,0.30
2022-09-26T10:14:33.345Z,0.22
2022-09-26T10:17:09.939Z,0.20
2022-09-26T10:20:05.224Z,0.28
2022-09-26T10:22:45.230Z,0.45
2022-09-26T10:25:25.993Z,0.40
2022-09-26T10:27:59.258Z,1.13
2022-09-26T10:30:34.646Z,0.68
2022-09-26T10:33:25.067Z,0.30
2022-09-26T10:36:05.009Z,0.55
2022-09-26T10:38:55.194Z,0.20
2022-09-26T10:41:25.799Z,0.88
2022-09-26T10:44:09.897Z,0.47
2022-09-26T10:47:19.049Z,0.28
2022-09-26T10:50:18.904Z,0.30
2022-09-26T10:53:09.528Z,0.80
2022-09-26T10:55:46.347Z,0.77
2022-09-26T10:58:22.869Z,0.40
2022-09-26T11:00:54.426Z,0.65
2022-09-26T11:03:41.514Z,0.30
2022-09-26T11:06:28.978Z,0.82
2022-09-26T11:09:06.954Z,0.95
2022-09-26T11:11:40.084Z,0.50
2022-09-26T11:14:12.257Z,0.80
2022-09-26T11:16:52.977Z,0.40
2022-09-26T11:19:54.698Z,0.52
2022-09-26T11:22:38.387Z,0.28
2022-09-26T11:25:27.864Z,0.22
2022-09-26T11:28:22.722Z,0.50
2022-09-26T11:31:27.130Z,1.20
2022-09-26T11:34:26.808Z,0.40
2022-09-26T11:37:40.606Z,0.10
2022-09-26T11:40:30.655Z,0.40
2022-09-26T11:43:11.123Z,0.30
2022-09-26T11:46:16.024Z,0.32
2022-09-26T11:49:10.765Z,0.17
2022-09-26T11:52:17.719Z,0.22
2022-09-26T11:54:57.097Z,0.47
2022-09-26T11:57:40.922Z,0.60
2022-09-26T12:00:27.565Z,0.20
2022-09-26T12:03:19.855Z,0.52
2022-09-26T12:06:20.571Z,0.00
2022-09-26T12:09:04.152Z,0.17
2022-09-26T12:11:34.824Z,0.20
2022-09-26T12:14:09.605Z,0.10
2022-09-26T12:16:59.113Z,0.20
2022-09-26T12:19:38.906Z,0.30
2022-09-26T12:22:30.944Z,0.22
2022-09-26T12:25:17.843Z,0.45
2022-09-26T12:28:05.847Z,0.20
2022-09-26T12:33:38.345Z,0.30
2022-09-26T12:36:22.330Z,0.25
2022-09-26T12:39:07.654Z,1.00
2022-09-26T12:41:51.927Z,0.10
2022-09-26T12:44:54.453Z,0.60
2022-09-26T12:48:00.841Z,0.50
2022-09-26T12:50:35.457Z,0.47
2022-09-26T12:53:50.846Z,0.80
2022-09-26T12:56:58.650Z,0.20
2022-09-26T12:59:49.875Z,0.15
2022-09-26T13:02:50.947Z,0.30
2022-09-26T13:05:46.927Z,0.40
2022-09-26T13:08:25.631Z,0.30
2022-09-26T13:11:17.629Z,0.22
2022-09-26T13:14:14.825Z,0.38
2022-09-26T13:17:09.619Z,0.17
2022-09-26T13:19:43.368Z,0.08
2022-09-26T13:22:41.659Z,0.22
2022-09-26T13:25:20.717Z,0.28
2022-09-26T13:28:12.378Z,0.28
2022-09-26T13:31:00.132Z,0.40
2022-09-26T13:33:35.251Z,0.10
2022-09-26T13:36:04.470Z,0.77
2022-09-26T13:39:05.084Z,0.90
2022-09-26T13:41:50.562Z,0.43
2022-09-26T13:44:55.928Z,0.10
2022-09-26T13:48:03.717Z,0.25
2022-09-26T13:51:12.210Z,0.88
2022-09-26T13:53:57.721Z,1.40
2022-09-26T13:56:35.067Z,2.13
2022-09-26T13:59:27.336Z,1.05
2022-09-26T14:02:16.949Z,0.50
2022-09-26T14:04:46.450Z,0.30
2022-09-26T14:07:33.870Z,0.90
2022-09-26T14:10:02.038Z,0.80
2022-09-26T14:12:53.981Z,0.30
2022-09-26T14:15:25.630Z,0.63
2022-09-26T14:18:13.086Z,0.40
2022-09-26T14:20:55.843Z,0.10
2022-09-26T14:23:43.936Z,0.40
2022-09-26T14:26:21.204Z,0.30
2022-09-26T14:28:57.182Z,0.63
2022-09-26T14:31:24.949Z,0.40
2022-09-26T14:34:26.974Z,0.50
2022-09-26T14:36:58.173Z,0.32
2022-09-26T14:39:28.781Z,0.30
2022-09-26T14:41:59.170Z,0.32
2022-09-26T14:44:34.952Z,0.40
2022-09-26T14:47:16.296Z,0.32
2022-09-26T14:49:54.210Z,0.40
2022-09-26T14:52:25.342Z,0.60
2022-09-26T14:55:01.281Z,0.32
2022-09-26T14:57:32.145Z,0.50
2022-09-26T15:00:02.766Z,0.50
2022-09-26T15:02:41.829Z,0.35
2022-09-26T15:05:23.496Z,0.13
2022-09-26T15:07:53.707Z,0.32
2022-09-26T15:10:40.294Z,0.60
2022-09-26T15:13:10.686Z,0.40
2022-09-26T15:15:42.166Z,0.45
2022-09-26T15:18:29.839Z,0.38
2022-09-26T15:21:19.133Z,0.47
2022-09-26T15:23:52.824Z,0.68
2022-09-26T15:26:25.745Z,0.30
2022-09-26T15:28:56.758Z,0.88
2022-09-26T15:31:44.775Z,0.30
2022-09-26T15:34:44.742Z,0.47
2022-09-26T15:37:21.373Z,0.88
2022-09-26T15:39:49.616Z,0.45
2022-09-26T15:42:44.975Z,0.88
2022-09-26T15:45:26.986Z,0.50
2022-09-26T15:47:57.002Z,0.55
2022-09-26T15:50:30.258Z,0.60
2022-09-26T15:53:10.222Z,0.60
2022-09-26T15:55:40.878Z,0.82
2022-09-26T15:58:15.790Z,0.88
2022-09-26T16:00:48.556Z,0.50
2022-09-26T16:03:27.158Z,0.70
2022-09-26T16:05:55.290Z,0.68
2022-09-26T16:08:29.447Z,0.60
2022-09-26T16:11:00.180Z,0.85
2022-09-26T16:13:35.886Z,0.57
2022-09-26T16:19:07.419Z,0.50
2022-09-26T16:21:36.664Z,0.65
2022-09-26T16:24:26.562Z,2.05
2022-09-26T16:26:56.755Z,0.93
2022-09-26T16:29:34.815Z,0.77
2022-09-26T16:32:04.500Z,2.00
2022-09-26T16:34:32.426Z,2.88
2022-09-26T16:37:00.619Z,2.58
2022-09-26T16:39:30.563Z,1.35
2022-09-26T16:42:02.898Z,1.55
2022-09-26T16:44:36.284Z,1.90
2022-09-26T16:47:26.107Z,1.67
2022-09-26T16:49:53.848Z,1.20
2022-09-26T16:52:29.311Z,1.48
2022-09-26T16:55:01.294Z,1.33
2022-09-26T16:57:32.918Z,1.52
2022-09-26T17:00:23.308Z,1.15
2022-09-26T17:02:53.826Z,1.88
2022-09-26T17:05:22.121Z,3.65
2022-09-26T17:07:50.346Z,3.97
2022-09-26T17:10:19.705Z,3.25
2022-09-26T17:12:50.780Z,2.45
2022-09-26T17:15:27.389Z,1.17
2022-09-26T17:17:59.567Z,0.47
2022-09-26T17:20:28.556Z,1.00
2022-09-26T17:22:56.540Z,0.85
2022-09-26T17:25:25.557Z,0.85
2022-09-26T17:27:58.073Z,1.10
2022-09-26T17:30:26.099Z,0.80
2022-09-26T17:32:54.734Z,1.00
2022-09-26T17:35:31.568Z,1.83
2022-09-26T17:38:00.270Z,2.13
2022-09-26T17:40:31.875Z,2.50
2022-09-26T17:43:01.734Z,2.10
2022-09-26T17:45:33.267Z,1.55
2022-09-26T17:48:05.502Z,1.33
2022-09-26T17:50:35.617Z,1.75
2022-09-26T17:53:03.687Z,2.10
2022-09-26T17:55:31.788Z,2.25
2022-09-26T17:58:00.185Z,2.03
2022-09-26T18:00:32.579Z,2.53
2022-09-26T18:03:04.326Z,1.67
2022-09-26T18:05:37.959Z,1.40
2022-09-26T18:08:16.053Z,1.67
2022-09-26T18:10:57.068Z,1.85
2022-09-26T18:13:31.615Z,2.50
2022-09-26T18:16:02.499Z,1.48
2022-09-26T18:18:34.467Z,1.70
2022-09-26T18:21:07.552Z,1.63
2022-09-26T18:23:45.849Z,1.92
2022-09-26T18:26:30.255Z,2.00
2022-09-26T18:29:10.621Z,2.03
2022-09-26T18:31:44.637Z,1.95
2022-09-26T18:34:16.422Z,2.92
2022-09-26T18:36:44.642Z,4.18
2022-09-26T18:39:12.880Z,4.38
2022-09-26T18:41:45.107Z,3.22
2022-09-26T18:44:17.923Z,3.60
2022-09-26T18:46:47.353Z,3.17
2022-09-26T18:49:16.025Z,2.25
2022-09-26T18:51:45.918Z,2.90
2022-09-26T18:54:26.564Z,2.65
2022-09-26T18:57:15.738Z,1.95
2022-09-26T18:59:45.479Z,2.13
2022-09-26T19:02:21.696Z,3.75
2022-09-26T19:04:50.383Z,9.90
2022-09-26T19:07:21.502Z,4.10
2022-09-26T19:09:50.332Z,2.35
2022-09-26T19:12:18.384Z,1.40
2022-09-26T19:14:46.207Z,2.10
2022-09-26T19:17:13.984Z,1.15
2022-09-26T19:19:41.752Z,1.77
2022-09-26T19:22:16.437Z,1.60
2022-09-26T19:24:48.766Z,1.52
2022-09-26T19:27:18.578Z,1.77
2022-09-26T19:29:55.318Z,2.00
2022-09-26T19:32:33.342Z,2.15
2022-09-26T19:35:04.627Z,2.20
2022-09-26T19:37:32.404Z,1.90
2022-09-26T19:40:00.916Z,2.08
2022-09-26T19:42:28.584Z,1.75
2022-09-26T19:44:58.376Z,1.73
2022-09-26T19:47:28.234Z,1.77
2022-09-26T19:49:55.905Z,2.72
2022-09-26T19:52:24.585Z,2.28
2022-09-26T19:54:52.317Z,4.45
2022-09-26T19:57:22.187Z,6.28
2022-09-26T19:59:50.692Z,5.57
2022-09-26T20:02:24.252Z,1.75
2022-09-26T20:04:52.135Z,3.35
2022-09-26T20:07:20.176Z,4.53
2022-09-26T20:09:47.949Z,2.22
2022-09-26T20:12:16.730Z,1.08
2022-09-26T20:14:44.498Z,0.80
2022-09-26T20:17:24.334Z,0.70
2022-09-26T20:19:58.692Z,1.52
2022-09-26T20:22:26.856Z,1.00
2022-09-26T20:24:55.864Z,0.75
2022-09-26T20:27:29.208Z,1.00
2022-09-26T20:30:15.982Z,0.85
2022-09-26T20:32:43.807Z,0.75
2022-09-26T20:35:14.696Z,0.75
2022-09-26T20:37:43.893Z,0.45
2022-09-26T20:40:22.801Z,0.50
2022-09-26T20:42:57.003Z,0.40
2022-09-26T20:45:40.931Z,0.70
2022-09-26T20:48:20.854Z,0.57
2022-09-26T20:50:49.713Z,0.75
2022-09-26T20:53:18.477Z,0.60
2022-09-26T20:55:49.038Z,0.73
2022-09-26T20:58:16.711Z,1.00
2022-09-26T21:01:13.939Z,0.88
2022-09-26T21:03:53.248Z,0.50
2022-09-26T21:06:31.835Z,0.70
2022-09-26T21:08:59.667Z,0.40
2022-09-26T21:11:27.392Z,0.80
2022-09-26T21:13:55.075Z,0.60
2022-09-26T21:16:22.785Z,0.35
2022-09-26T21:18:52.361Z,0.50
2022-09-26T21:21:26.219Z,1.13
2022-09-26T21:24:30.477Z,0.95
2022-09-26T21:26:58.182Z,0.55
2022-09-26T21:29:27.136Z,0.80
2022-09-26T21:31:58.598Z,0.30
2022-09-26T21:34:27.914Z,0.57
2022-09-26T21:36:57.132Z,0.85
2022-09-26T21:39:25.768Z,1.00
2022-09-26T21:41:58.711Z,0.60
2022-09-26T21:44:38.869Z,0.40
2022-09-26T21:47:06.606Z,0.43
2022-09-26T21:49:34.686Z,0.57
2022-09-26T21:52:12.365Z,0.60
2022-09-26T21:54:43.479Z,0.50
2022-09-26T21:57:22.278Z,0.47
2022-09-26T21:59:52.055Z,0.65
2022-09-26T22:02:20.676Z,0.85
2022-09-26T22:04:55.113Z,0.50
2022-09-26T22:07:25.953Z,0.80
2022-09-26T22:09:53.729Z,0.95
2022-09-26T22:12:21.447Z,0.75
2022-09-26T22:14:49.246Z,0.40
2022-09-26T22:17:16.933Z,0.43
2022-09-26T22:19:44.949Z,0.80
2022-09-26T22:22:12.651Z,0.60
2022-09-26T22:24:40.364Z,0.60
2022-09-26T22:27:08.026Z,0.70
2022-09-26T22:29:35.748Z,0.70
2022-09-26T22:32:04.079Z,0.70
2022-09-26T22:34:32.627Z,0.63
2022-09-26T22:37:00.415Z,0.50
2022-09-26T22:39:28.195Z,0.50
2022-09-26T22:41:55.877Z,0.40
2022-09-26T22:44:23.592Z,0.38
2022-09-26T22:46:51.246Z,0.90
2022-09-26T22:49:18.994Z,0.70
2022-09-26T22:51:46.666Z,0.52
2022-09-26T22:54:14.366Z,0.30
2022-09-26T22:56:42.302Z,0.40
2022-09-26T22:59:10.335Z,0.40
2022-09-26T23:01:39.121Z,0.68
2022-09-26T23:04:06.917Z,0.57
2022-09-26T23:06:34.574Z,0.40
2022-09-26T23:09:02.380Z,0.55
2022-09-26T23:11:31.687Z,0.82
2022-09-26T23:13:59.339Z,0.40
2022-09-26T23:16:29.725Z,0.85
2022-09-26T23:18:58.092Z,0.70
2022-09-26T23:21:27.632Z,0.77
2022-09-26T23:23:57.512Z,0.43
2022-09-26T23:26:27.677Z,0.95
2022-09-26T23:28:57.223Z,0.75
2022-09-26T23:31:26.398Z,1.00
2022-09-26T23:33:54.609Z,1.25
2022-09-26T23:36:22.530Z,0.90
2022-09-26T23:38:50.439Z,1.25
2022-09-26T23:41:18.520Z,1.20
2022-09-26T23:43:46.613Z,1.00
2022-09-26T23:46:14.642Z,1.15
2022-09-26T23:48:43.179Z,1.05
2022-09-26T23:51:11.007Z,1.02
2022-09-26T23:53:38.692Z,1.05
2022-09-26T23:56:12.505Z,0.70
2022-09-26T23:58:41.243Z,1.20
